sensor_id;sensor_type;location;lat;lon;timestamp;pressure;altitude;pressure_sealevel;temperature;humidity
79221;BME280;72175;52.118;5.406;2024-02-23T00:01:00;98714.50;;;13.61;66.40
79221;BME280;72175;52.118;5.406;2024-02-23T00:03:26;98717.38;;;13.60;66.01
79221;BME280;72175;52.118;5.406;2024-02-23T00:05:53;98728.00;;;13.60;66.10
79221;BME280;72175;52.118;5.406;2024-02-23T00:08:19;98720.84;;;13.60;65.96
79221;BME280;72175;52.118;5.406;2024-02-23T00:10:46;98717.38;;;13.60;66.39
79221;BME280;72175;52.118;5.406;2024-02-23T00:13:12;98721.84;;;13.59;66.34
79221;BME280;72175;52.118;5.406;2024-02-23T00:15:39;98737.00;;;13.59;66.21
79221;BME280;72175;52.118;5.406;2024-02-23T00:18:05;98732.50;;;13.59;66.00
79221;BME280;72175;52.118;5.406;2024-02-23T00:20:33;98743.94;;;13.60;66.25
79221;BME280;72175;52.118;5.406;2024-02-23T00:22:59;98743.94;;;13.60;66.05
79221;BME280;72175;52.118;5.406;2024-02-23T00:25:26;98737.00;;;13.59;65.95
79221;BME280;72175;52.118;5.406;2024-02-23T00:27:52;98748.44;;;13.59;66.17
79221;BME280;72175;52.118;5.406;2024-02-23T00:30:19;98752.13;;;13.58;66.09
79221;BME280;72175;52.118;5.406;2024-02-23T00:32:46;98747.63;;;13.59;66.34
79221;BME280;72175;52.118;5.406;2024-02-23T00:35:12;98747.81;;;13.57;66.03
79221;BME280;72175;52.118;5.406;2024-02-23T00:37:39;98752.13;;;13.58;65.85
79221;BME280;72175;52.118;5.406;2024-02-23T00:40:06;98756.59;;;13.58;66.08
79221;BME280;72175;52.118;5.406;2024-02-23T00:42:32;98765.41;;;13.58;65.80
79221;BME280;72175;52.118;5.406;2024-02-23T00:44:59;98761.91;;;13.58;66.21
79221;BME280;72175;52.118;5.406;2024-02-23T00:47:26;98763.75;;;13.57;65.78
79221;BME280;72175;52.118;5.406;2024-02-23T00:49:53;98782.38;;;13.57;65.79
79221;BME280;72175;52.118;5.406;2024-02-23T00:52:20;98770.09;;;13.56;65.79
79221;BME280;72175;52.118;5.406;2024-02-23T00:54:46;98777.06;;;13.57;65.84
79221;BME280;72175;52.118;5.406;2024-02-23T00:57:13;98770.09;;;13.56;65.82
79221;BME280;72175;52.118;5.406;2024-02-23T00:59:40;98784.22;;;13.57;65.77
79221;BME280;72175;52.118;5.406;2024-02-23T01:02:06;98786.03;;;13.56;65.84
79221;BME280;72175;52.118;5.406;2024-02-23T01:04:33;98802.00;;;13.56;65.78
79221;BME280;72175;52.118;5.406;2024-02-23T01:06:59;98798.50;;;13.56;65.61
79221;BME280;72175;52.118;5.406;2024-02-23T01:09:26;98806.47;;;13.56;65.87
79221;BME280;72175;52.118;5.406;2024-02-23T01:11:52;98810.97;;;13.55;65.95
79221;BME280;72175;52.118;5.406;2024-02-23T01:14:19;98836.72;;;13.55;66.02
79221;BME280;72175;52.118;5.406;2024-02-23T01:16:46;98833.25;;;13.54;66.15
79221;BME280;72175;52.118;5.406;2024-02-23T01:19:12;98832.25;;;13.55;66.06
79221;BME280;72175;52.118;5.406;2024-02-23T01:21:42;98832.25;;;13.55;65.73
79221;BME280;72175;52.118;5.406;2024-02-23T01:24:09;98845.53;;;13.55;66.09
79221;BME280;72175;52.118;5.406;2024-02-23T01:26:35;98831.41;;;13.55;66.07
79221;BME280;72175;52.118;5.406;2024-02-23T01:29:07;98835.09;;;13.54;65.97
79221;BME280;72175;52.118;5.406;2024-02-23T01:31:34;98843.88;;;13.54;65.45
79221;BME280;72175;52.118;5.406;2024-02-23T01:34:00;98843.88;;;13.54;66.00
79221;BME280;72175;52.118;5.406;2024-02-23T01:36:27;98850.22;;;13.53;65.63
79221;BME280;72175;52.118;5.406;2024-02-23T01:38:53;98866.97;;;13.54;65.80
79221;BME280;72175;52.118;5.406;2024-02-23T01:41:21;98855.53;;;13.53;65.96
79221;BME280;72175;52.118;5.406;2024-02-23T01:43:48;98850.22;;;13.53;65.64
79221;BME280;72175;52.118;5.406;2024-02-23T01:46:16;98846.75;;;13.53;65.79
79221;BME280;72175;52.118;5.406;2024-02-23T01:48:45;98850.22;;;13.53;65.78
79221;BME280;72175;52.118;5.406;2024-02-23T01:51:12;98864.31;;;13.54;65.81
79221;BME280;72175;52.118;5.406;2024-02-23T01:53:39;98875.16;;;13.52;65.71
79221;BME280;72175;52.118;5.406;2024-02-23T01:56:06;98885.78;;;13.52;65.70
79221;BME280;72175;52.118;5.406;2024-02-23T01:58:35;98882.31;;;13.52;65.87
79221;BME280;72175;52.118;5.406;2024-02-23T02:01:03;98883.13;;;13.52;65.67
79221;BME280;72175;52.118;5.406;2024-02-23T02:03:29;98881.50;;;13.51;65.51
79221;BME280;72175;52.118;5.406;2024-02-23T02:05:56;98872.69;;;13.51;65.60
79221;BME280;72175;52.118;5.406;2024-02-23T02:08:34;98895.59;;;13.52;65.83
79221;BME280;72175;52.118;5.406;2024-02-23T02:11:01;98895.59;;;13.52;65.83
79221;BME280;72175;52.118;5.406;2024-02-23T02:13:28;98894.78;;;13.51;65.45
79221;BME280;72175;52.118;5.406;2024-02-23T02:15:54;98892.13;;;13.51;65.59
79221;BME280;72175;52.118;5.406;2024-02-23T02:18:21;98893.97;;;13.51;65.61
79221;BME280;72175;52.118;5.406;2024-02-23T02:20:56;98900.09;;;13.51;65.49
79221;BME280;72175;52.118;5.406;2024-02-23T02:23:24;98899.28;;;13.51;65.87
79221;BME280;72175;52.118;5.406;2024-02-23T02:25:58;98897.63;;;13.50;65.49
79221;BME280;72175;52.118;5.406;2024-02-23T02:28:25;98890.47;;;13.50;65.42
79221;BME280;72175;52.118;5.406;2024-02-23T02:30:52;98894.97;;;13.50;65.46
79221;BME280;72175;52.118;5.406;2024-02-23T02:33:19;98896.00;;;13.49;65.58
79221;BME280;72175;52.118;5.406;2024-02-23T02:35:46;98900.50;;;13.48;65.51
79221;BME280;72175;52.118;5.406;2024-02-23T02:38:13;98888.03;;;13.49;65.55
79221;BME280;72175;52.118;5.406;2024-02-23T02:40:39;98896.00;;;13.49;65.71
79221;BME280;72175;52.118;5.406;2024-02-23T02:43:06;98896.81;;;13.49;65.76
79221;BME280;72175;52.118;5.406;2024-02-23T02:45:33;98900.50;;;13.48;65.54
79221;BME280;72175;52.118;5.406;2024-02-23T02:48:00;98905.00;;;13.48;65.70
79221;BME280;72175;52.118;5.406;2024-02-23T02:50:30;98909.28;;;13.49;65.24
79221;BME280;72175;52.118;5.406;2024-02-23T02:52:57;98913.78;;;13.48;65.44
79221;BME280;72175;52.118;5.406;2024-02-23T02:55:23;98908.47;;;13.48;65.72
79221;BME280;72175;52.118;5.406;2024-02-23T02:57:50;98912.19;;;13.47;65.33
79221;BME280;72175;52.118;5.406;2024-02-23T03:00:16;98908.69;;;13.47;65.31
79221;BME280;72175;52.118;5.406;2024-02-23T03:02:43;98909.50;;;13.47;65.28
79221;BME280;72175;52.118;5.406;2024-02-23T03:05:09;98913.19;;;13.46;65.62
79221;BME280;72175;52.118;5.406;2024-02-23T03:07:36;98912.19;;;13.47;65.65
79221;BME280;72175;52.118;5.406;2024-02-23T03:10:03;98914.00;;;13.47;65.38
79221;BME280;72175;52.118;5.406;2024-02-23T03:12:29;98916.66;;;13.47;65.47
79221;BME280;72175;52.118;5.406;2024-02-23T03:14:56;98919.31;;;13.47;65.52
79221;BME280;72175;52.118;5.406;2024-02-23T03:17:23;98916.88;;;13.45;65.23
79221;BME280;72175;52.118;5.406;2024-02-23T03:19:49;98925.66;;;13.46;65.17
79221;BME280;72175;52.118;5.406;2024-02-23T03:22:19;98926.69;;;13.45;65.34
79221;BME280;72175;52.118;5.406;2024-02-23T03:24:45;98928.50;;;13.44;65.45
79221;BME280;72175;52.118;5.406;2024-02-23T03:27:12;98925.84;;;13.44;65.54
79221;BME280;72175;52.118;5.406;2024-02-23T03:29:40;98933.84;;;13.44;65.25
79221;BME280;72175;52.118;5.406;2024-02-23T03:32:07;98934.66;;;13.45;65.29
79221;BME280;72175;52.118;5.406;2024-02-23T03:34:33;98938.13;;;13.45;65.20
79221;BME280;72175;52.118;5.406;2024-02-23T03:37:00;98939.97;;;13.45;65.56
79221;BME280;72175;52.118;5.406;2024-02-23T03:39:29;98941.81;;;13.44;64.99
79221;BME280;72175;52.118;5.406;2024-02-23T03:41:55;98947.13;;;13.44;65.10
79221;BME280;72175;52.118;5.406;2024-02-23T03:44:22;98948.94;;;13.44;65.45
79221;BME280;72175;52.118;5.406;2024-02-23T03:46:49;98948.94;;;13.44;65.50
79221;BME280;72175;52.118;5.406;2024-02-23T03:49:16;98956.91;;;13.44;64.91
79221;BME280;72175;52.118;5.406;2024-02-23T03:51:43;98958.75;;;13.43;65.26
79221;BME280;72175;52.118;5.406;2024-02-23T03:54:09;98961.41;;;13.43;65.05
79221;BME280;72175;52.118;5.406;2024-02-23T03:56:40;98966.72;;;13.43;65.12
79221;BME280;72175;52.118;5.406;2024-02-23T03:59:08;98961.41;;;13.43;64.98
79221;BME280;72175;52.118;5.406;2024-02-23T04:01:36;98955.28;;;13.43;65.13
79221;BME280;72175;52.118;5.406;2024-02-23T04:04:04;98967.75;;;13.42;65.30
79221;BME280;72175;52.118;5.406;2024-02-23T04:06:30;98965.09;;;13.42;65.17
79221;BME280;72175;52.118;5.406;2024-02-23T04:08:57;98964.28;;;13.42;65.16
79221;BME280;72175;52.118;5.406;2024-02-23T04:11:23;98963.44;;;13.41;64.90
79221;BME280;72175;52.118;5.406;2024-02-23T04:13:50;98972.25;;;13.42;65.08
79221;BME280;72175;52.118;5.406;2024-02-23T04:16:21;98963.44;;;13.41;65.36
79221;BME280;72175;52.118;5.406;2024-02-23T04:18:48;98971.44;;;13.41;65.18
79221;BME280;72175;52.118;5.406;2024-02-23T04:21:15;98962.63;;;13.41;65.01
79221;BME280;72175;52.118;5.406;2024-02-23T04:23:43;98968.78;;;13.41;65.20
79221;BME280;72175;52.118;5.406;2024-02-23T04:26:09;98978.56;;;13.41;64.78
79221;BME280;72175;52.118;5.406;2024-02-23T04:28:40;98972.44;;;13.40;65.36
79221;BME280;72175;52.118;5.406;2024-02-23T04:31:08;98982.25;;;13.40;65.40
79221;BME280;72175;52.118;5.406;2024-02-23T04:33:35;98985.72;;;13.40;65.14
79221;BME280;72175;52.118;5.406;2024-02-23T04:36:03;98981.44;;;13.39;64.93
79221;BME280;72175;52.118;5.406;2024-02-23T04:38:30;98983.88;;;13.41;65.05
79221;BME280;72175;52.118;5.406;2024-02-23T04:40:58;98978.97;;;13.38;65.09
79221;BME280;72175;52.118;5.406;2024-02-23T04:43:25;98988.38;;;13.40;65.17
79221;BME280;72175;52.118;5.406;2024-02-23T04:45:51;98992.06;;;13.39;65.06
79221;BME280;72175;52.118;5.406;2024-02-23T04:48:18;99006.34;;;13.38;64.82
79221;BME280;72175;52.118;5.406;2024-02-23T04:50:44;99001.03;;;13.38;64.90
79221;BME280;72175;52.118;5.406;2024-02-23T04:53:11;99004.53;;;13.39;65.15
79221;BME280;72175;52.118;5.406;2024-02-23T04:55:38;99001.03;;;13.38;64.81
79221;BME280;72175;52.118;5.406;2024-02-23T04:58:04;99003.69;;;13.38;64.77
79221;BME280;72175;52.118;5.406;2024-02-23T05:00:31;98999.41;;;13.37;65.02
79221;BME280;72175;52.118;5.406;2024-02-23T05:03:00;99007.38;;;13.37;64.94
79221;BME280;72175;52.118;5.406;2024-02-23T05:05:30;99000.44;;;13.36;64.89
79221;BME280;72175;52.118;5.406;2024-02-23T05:07:57;98997.75;;;13.36;64.91
79221;BME280;72175;52.118;5.406;2024-02-23T05:10:23;99005.75;;;13.36;65.12
79221;BME280;72175;52.118;5.406;2024-02-23T05:12:50;99006.56;;;13.37;64.71
79221;BME280;72175;52.118;5.406;2024-02-23T05:15:16;99006.56;;;13.37;64.94
79221;BME280;72175;52.118;5.406;2024-02-23T05:17:43;99002.25;;;13.36;64.75
79221;BME280;72175;52.118;5.406;2024-02-23T05:20:12;98997.75;;;13.36;64.70
79221;BME280;72175;52.118;5.406;2024-02-23T05:22:39;98998.78;;;13.35;64.85
79221;BME280;72175;52.118;5.406;2024-02-23T05:25:07;98994.28;;;13.36;64.99
79221;BME280;72175;52.118;5.406;2024-02-23T05:27:34;98992.66;;;13.35;64.97
79221;BME280;72175;52.118;5.406;2024-02-23T05:30:00;98990.00;;;13.35;64.85
79221;BME280;72175;52.118;5.406;2024-02-23T05:32:27;99000.63;;;13.35;64.91
79221;BME280;72175;52.118;5.406;2024-02-23T05:34:54;98999.81;;;13.34;65.01
79221;BME280;72175;52.118;5.406;2024-02-23T05:37:20;98994.50;;;13.34;64.63
79221;BME280;72175;52.118;5.406;2024-02-23T05:39:47;98999.81;;;13.34;64.79
79221;BME280;72175;52.118;5.406;2024-02-23T05:42:13;99004.28;;;13.34;64.76
79221;BME280;72175;52.118;5.406;2024-02-23T05:44:43;99003.47;;;13.33;65.02
79221;BME280;72175;52.118;5.406;2024-02-23T05:47:10;98996.31;;;13.34;64.62
79221;BME280;72175;52.118;5.406;2024-02-23T05:49:37;99002.47;;;13.34;64.89
79221;BME280;72175;52.118;5.406;2024-02-23T05:52:03;99001.63;;;13.34;64.58
79221;BME280;72175;52.118;5.406;2024-02-23T05:54:30;99002.66;;;13.32;64.64
79221;BME280;72175;52.118;5.406;2024-02-23T05:56:56;99001.84;;;13.32;64.65
79221;BME280;72175;52.118;5.406;2024-02-23T05:59:23;99000.00;;;13.32;64.65
79221;BME280;72175;52.118;5.406;2024-02-23T06:01:50;98995.72;;;13.31;64.56
79221;BME280;72175;52.118;5.406;2024-02-23T06:04:18;98989.59;;;13.31;64.49
79221;BME280;72175;52.118;5.406;2024-02-23T06:06:44;98996.75;;;13.30;64.70
79221;BME280;72175;52.118;5.406;2024-02-23T06:09:12;98999.19;;;13.32;64.59
79221;BME280;72175;52.118;5.406;2024-02-23T06:11:38;99004.50;;;13.32;64.50
79221;BME280;72175;52.118;5.406;2024-02-23T06:14:06;99005.53;;;13.31;64.90
79221;BME280;72175;52.118;5.406;2024-02-23T06:16:32;99010.84;;;13.31;65.00
79221;BME280;72175;52.118;5.406;2024-02-23T06:18:59;99005.53;;;13.31;64.54
79221;BME280;72175;52.118;5.406;2024-02-23T06:21:25;99005.53;;;13.31;64.65
79221;BME280;72175;52.118;5.406;2024-02-23T06:23:52;99008.19;;;13.31;64.31
79221;BME280;72175;52.118;5.406;2024-02-23T06:26:19;99012.69;;;13.30;64.63
79221;BME280;72175;52.118;5.406;2024-02-23T06:28:46;99000.22;;;13.31;64.53
79221;BME280;72175;52.118;5.406;2024-02-23T06:31:12;99003.09;;;13.29;64.58
79221;BME280;72175;52.118;5.406;2024-02-23T06:33:39;99019.84;;;13.30;64.66
79221;BME280;72175;52.118;5.406;2024-02-23T06:36:07;99011.88;;;13.30;64.82
79221;BME280;72175;52.118;5.406;2024-02-23T06:38:34;99022.50;;;13.30;64.58
79221;BME280;72175;52.118;5.406;2024-02-23T06:41:01;99019.03;;;13.29;64.65
79221;BME280;72175;52.118;5.406;2024-02-23T06:43:28;99019.03;;;13.29;64.76
79221;BME280;72175;52.118;5.406;2024-02-23T06:45:54;99023.50;;;13.29;64.49
79221;BME280;72175;52.118;5.406;2024-02-23T06:48:23;99028.00;;;13.28;64.52
79221;BME280;72175;52.118;5.406;2024-02-23T06:50:55;99023.50;;;13.29;64.80
79221;BME280;72175;52.118;5.406;2024-02-23T06:53:21;99022.69;;;13.28;64.49
79221;BME280;72175;52.118;5.406;2024-02-23T06:55:48;99020.03;;;13.28;64.70
79221;BME280;72175;52.118;5.406;2024-02-23T06:58:14;99014.72;;;13.28;64.93
79221;BME280;72175;52.118;5.406;2024-02-23T07:00:42;99021.88;;;13.28;64.49
79221;BME280;72175;52.118;5.406;2024-02-23T07:03:09;99017.56;;;13.27;64.41
79221;BME280;72175;52.118;5.406;2024-02-23T07:05:35;99014.91;;;13.27;64.71
79221;BME280;72175;52.118;5.406;2024-02-23T07:08:02;99020.22;;;13.27;64.39
79221;BME280;72175;52.118;5.406;2024-02-23T07:10:29;99014.91;;;13.27;64.86
79221;BME280;72175;52.118;5.406;2024-02-23T07:12:56;99019.41;;;13.26;64.46
79221;BME280;72175;52.118;5.406;2024-02-23T07:15:24;99015.13;;;13.25;64.68
79221;BME280;72175;52.118;5.406;2024-02-23T07:17:52;99018.59;;;13.26;64.33
79221;BME280;72175;52.118;5.406;2024-02-23T07:20:19;99018.59;;;13.26;64.58
79221;BME280;72175;52.118;5.406;2024-02-23T07:22:46;99023.91;;;13.26;64.59
79221;BME280;72175;52.118;5.406;2024-02-23T07:25:19;99020.44;;;13.25;64.68
79221;BME280;72175;52.118;5.406;2024-02-23T07:27:49;99015.94;;;13.26;64.31
79221;BME280;72175;52.118;5.406;2024-02-23T07:30:15;99024.94;;;13.25;64.49
79221;BME280;72175;52.118;5.406;2024-02-23T07:32:45;99025.56;;;13.27;64.18
79221;BME280;72175;52.118;5.406;2024-02-23T07:35:21;99012.06;;;13.28;64.19
79221;BME280;72175;52.118;5.406;2024-02-23T07:37:48;99017.38;;;13.28;64.41
79221;BME280;72175;52.118;5.406;2024-02-23T07:40:15;99012.88;;;13.29;64.38
79221;BME280;72175;52.118;5.406;2024-02-23T07:42:46;99015.13;;;13.32;64.57
79221;BME280;72175;52.118;5.406;2024-02-23T07:45:13;99005.31;;;13.32;64.38
79221;BME280;72175;52.118;5.406;2024-02-23T07:47:39;99000.81;;;13.33;64.22
79221;BME280;72175;52.118;5.406;2024-02-23T07:50:06;98999.59;;;13.36;64.48
79221;BME280;72175;52.118;5.406;2024-02-23T07:52:33;99001.25;;;13.37;64.36
79221;BME280;72175;52.118;5.406;2024-02-23T07:55:00;99002.06;;;13.37;64.38
79221;BME280;72175;52.118;5.406;2024-02-23T07:57:29;98993.06;;;13.38;64.34
79221;BME280;72175;52.118;5.406;2024-02-23T07:59:56;98989.41;;;13.39;64.24
79221;BME280;72175;52.118;5.406;2024-02-23T08:02:22;98984.91;;;13.40;64.01
79221;BME280;72175;52.118;5.406;2024-02-23T08:04:49;98983.06;;;13.40;64.10
79221;BME280;72175;52.118;5.406;2024-02-23T08:07:16;98991.84;;;13.41;64.07
79221;BME280;72175;52.118;5.406;2024-02-23T08:09:43;98987.38;;;13.41;64.00
79221;BME280;72175;52.118;5.406;2024-02-23T08:12:09;98999.44;;;13.44;63.90
79221;BME280;72175;52.118;5.406;2024-02-23T08:14:38;98981.66;;;13.44;64.24
79221;BME280;72175;52.118;5.406;2024-02-23T08:17:04;98976.13;;;13.46;63.96
79221;BME280;72175;52.118;5.406;2024-02-23T08:19:31;98984.94;;;13.46;63.97
79221;BME280;72175;52.118;5.406;2024-02-23T08:21:58;98984.94;;;13.46;64.12
79221;BME280;72175;52.118;5.406;2024-02-23T08:24:24;98980.44;;;13.47;63.81
79221;BME280;72175;52.118;5.406;2024-02-23T08:26:53;98976.72;;;13.48;63.72
79221;BME280;72175;52.118;5.406;2024-02-23T08:29:20;98980.19;;;13.48;63.94
79221;BME280;72175;52.118;5.406;2024-02-23T08:31:47;98981.03;;;13.49;64.09
79221;BME280;72175;52.118;5.406;2024-02-23T08:34:14;98986.13;;;13.50;63.57
79221;BME280;72175;52.118;5.406;2024-02-23T08:36:40;98982.66;;;13.50;64.10
79221;BME280;72175;52.118;5.406;2024-02-23T08:39:07;98972.84;;;13.50;63.87
79221;BME280;72175;52.118;5.406;2024-02-23T08:41:35;98958.53;;;13.51;63.57
79221;BME280;72175;52.118;5.406;2024-02-23T08:44:02;98962.22;;;13.50;64.04
79221;BME280;72175;52.118;5.406;2024-02-23T08:46:29;98968.34;;;13.51;63.66
79221;BME280;72175;52.118;5.406;2024-02-23T08:48:55;98971.84;;;13.51;63.67
79221;BME280;72175;52.118;5.406;2024-02-23T08:51:22;98958.53;;;13.51;63.60
79221;BME280;72175;52.118;5.406;2024-02-23T08:53:48;98956.91;;;13.50;63.52
79221;BME280;72175;52.118;5.406;2024-02-23T08:56:15;98968.34;;;13.51;63.80
79221;BME280;72175;52.118;5.406;2024-02-23T08:58:42;98962.03;;;13.52;63.68
79221;BME280;72175;52.118;5.406;2024-02-23T09:01:09;98959.38;;;13.52;63.69
79221;BME280;72175;52.118;5.406;2024-02-23T09:03:36;98967.34;;;13.52;63.57
79221;BME280;72175;52.118;5.406;2024-02-23T09:06:04;98971.84;;;13.51;63.74
79221;BME280;72175;52.118;5.406;2024-02-23T09:08:31;98969.19;;;13.51;63.81
79221;BME280;72175;52.118;5.406;2024-02-23T09:10:58;98978.78;;;13.52;63.69
79221;BME280;72175;52.118;5.406;2024-02-23T09:13:24;98982.25;;;13.53;63.50
79221;BME280;72175;52.118;5.406;2024-02-23T09:15:53;98976.94;;;13.53;63.77
79221;BME280;72175;52.118;5.406;2024-02-23T09:18:19;98984.09;;;13.52;63.82
79221;BME280;72175;52.118;5.406;2024-02-23T09:20:46;98996.38;;;13.53;63.50
79221;BME280;72175;52.118;5.406;2024-02-23T09:23:13;98984.72;;;13.54;63.81
79221;BME280;72175;52.118;5.406;2024-02-23T09:25:39;98990.22;;;13.53;63.52
79221;BME280;72175;52.118;5.406;2024-02-23T09:28:09;98982.25;;;13.53;63.39
79221;BME280;72175;52.118;5.406;2024-02-23T09:30:37;98990.22;;;13.53;63.54
79221;BME280;72175;52.118;5.406;2024-02-23T09:33:04;98991.06;;;13.53;63.77
79221;BME280;72175;52.118;5.406;2024-02-23T09:35:31;98984.91;;;13.53;63.58
79221;BME280;72175;52.118;5.406;2024-02-23T09:38:00;98994.53;;;13.54;63.35
79221;BME280;72175;52.118;5.406;2024-02-23T09:40:27;98998.00;;;13.54;63.59
79221;BME280;72175;52.118;5.406;2024-02-23T09:42:57;98998.00;;;13.54;63.44
79221;BME280;72175;52.118;5.406;2024-02-23T09:45:25;99003.31;;;13.54;63.63
79221;BME280;72175;52.118;5.406;2024-02-23T09:47:57;99010.47;;;13.54;63.29
79221;BME280;72175;52.118;5.406;2024-02-23T09:50:24;99008.63;;;13.54;63.45
79221;BME280;72175;52.118;5.406;2024-02-23T09:52:51;99004.97;;;13.55;63.63
79221;BME280;72175;52.118;5.406;2024-02-23T09:55:18;99020.09;;;13.55;63.67
79221;BME280;72175;52.118;5.406;2024-02-23T09:57:48;99018.25;;;13.55;63.58
79221;BME280;72175;52.118;5.406;2024-02-23T10:00:17;99027.03;;;13.56;63.33
79221;BME280;72175;52.118;5.406;2024-02-23T10:02:44;99022.75;;;13.55;63.27
79221;BME280;72175;52.118;5.406;2024-02-23T10:05:11;99018.25;;;13.55;63.26
79221;BME280;72175;52.118;5.406;2024-02-23T10:07:41;99007.63;;;13.55;63.30
79221;BME280;72175;52.118;5.406;2024-02-23T10:10:08;99004.97;;;13.55;63.24
79221;BME280;72175;52.118;5.406;2024-02-23T10:12:38;99025.19;;;13.56;63.40
79221;BME280;72175;52.118;5.406;2024-02-23T10:15:06;99019.06;;;13.56;63.20
79221;BME280;72175;52.118;5.406;2024-02-23T10:17:33;99025.19;;;13.56;63.21
79221;BME280;72175;52.118;5.406;2024-02-23T10:20:02;99039.31;;;13.57;63.47
79221;BME280;72175;52.118;5.406;2024-02-23T10:22:31;99031.34;;;13.57;63.48
79221;BME280;72175;52.118;5.406;2024-02-23T10:25:01;99033.16;;;13.56;63.02
79221;BME280;72175;52.118;5.406;2024-02-23T10:27:28;99026.00;;;13.57;63.14
79221;BME280;72175;52.118;5.406;2024-02-23T10:29:55;99023.34;;;13.57;63.32
79221;BME280;72175;52.118;5.406;2024-02-23T10:32:23;99040.13;;;13.57;62.94
79221;BME280;72175;52.118;5.406;2024-02-23T10:34:52;99042.78;;;13.57;62.93
79221;BME280;72175;52.118;5.406;2024-02-23T10:37:20;99032.16;;;13.57;63.02
79221;BME280;72175;52.118;5.406;2024-02-23T10:39:50;99048.09;;;13.57;63.38
79221;BME280;72175;52.118;5.406;2024-02-23T10:42:21;99043.59;;;13.58;63.43
79221;BME280;72175;52.118;5.406;2024-02-23T10:44:50;99051.56;;;13.58;63.30
79221;BME280;72175;52.118;5.406;2024-02-23T10:47:19;99060.38;;;13.58;63.15
79221;BME280;72175;52.118;5.406;2024-02-23T10:49:48;99056.88;;;13.58;63.00
79221;BME280;72175;52.118;5.406;2024-02-23T10:52:17;99065.69;;;13.58;63.43
79221;BME280;72175;52.118;5.406;2024-02-23T10:54:46;99069.16;;;13.59;63.29
79221;BME280;72175;52.118;5.406;2024-02-23T10:57:13;99068.34;;;13.58;62.97
79221;BME280;72175;52.118;5.406;2024-02-23T10:59:46;99076.31;;;13.58;63.30
79221;BME280;72175;52.118;5.406;2024-02-23T11:02:14;99069.34;;;13.57;63.16
79221;BME280;72175;52.118;5.406;2024-02-23T11:04:48;99062.19;;;13.58;63.31
79221;BME280;72175;52.118;5.406;2024-02-23T11:07:21;99074.47;;;13.59;62.95
79221;BME280;72175;52.118;5.406;2024-02-23T11:09:51;99069.16;;;13.59;63.25
79221;BME280;72175;52.118;5.406;2024-02-23T11:12:25;99073.66;;;13.58;63.17
79221;BME280;72175;52.118;5.406;2024-02-23T11:14:56;99074.47;;;13.59;63.12
79221;BME280;72175;52.118;5.406;2024-02-23T11:17:26;99066.50;;;13.59;62.86
79221;BME280;72175;52.118;5.406;2024-02-23T11:19:54;99072.63;;;13.59;63.18
79221;BME280;72175;52.118;5.406;2024-02-23T11:22:30;99076.13;;;13.60;62.87
79221;BME280;72175;52.118;5.406;2024-02-23T11:25:06;99075.28;;;13.59;62.81
79221;BME280;72175;52.118;5.406;2024-02-23T11:27:35;99071.63;;;13.60;62.83
79221;BME280;72175;52.118;5.406;2024-02-23T11:30:04;99085.91;;;13.59;63.13
79221;BME280;72175;52.118;5.406;2024-02-23T11:32:46;99082.44;;;13.59;62.83
79221;BME280;72175;52.118;5.406;2024-02-23T11:35:25;99073.47;;;13.60;62.70
79221;BME280;72175;52.118;5.406;2024-02-23T11:37:53;99068.13;;;13.60;62.89
79221;BME280;72175;52.118;5.406;2024-02-23T11:40:26;99067.13;;;13.61;62.89
79221;BME280;72175;52.118;5.406;2024-02-23T11:42:54;99073.47;;;13.60;63.00
79221;BME280;72175;52.118;5.406;2024-02-23T11:45:21;99066.31;;;13.60;63.07
79221;BME280;72175;52.118;5.406;2024-02-23T11:47:48;99074.28;;;13.60;62.97
79221;BME280;72175;52.118;5.406;2024-02-23T11:50:14;99076.94;;;13.60;62.91
79221;BME280;72175;52.118;5.406;2024-02-23T11:52:42;99094.50;;;13.61;63.10
79221;BME280;72175;52.118;5.406;2024-02-23T11:55:09;99085.72;;;13.61;63.13
79221;BME280;72175;52.118;5.406;2024-02-23T11:57:36;99091.03;;;13.61;63.07
79221;BME280;72175;52.118;5.406;2024-02-23T12:00:13;99087.16;;;13.63;62.60
79221;BME280;72175;52.118;5.406;2024-02-23T12:02:40;99098.00;;;13.62;63.09
79221;BME280;72175;52.118;5.406;2024-02-23T12:05:07;99090.84;;;13.62;63.12
79221;BME280;72175;52.118;5.406;2024-02-23T12:07:34;99094.50;;;13.61;63.04
79221;BME280;72175;52.118;5.406;2024-02-23T12:10:02;99094.31;;;13.63;63.07
79221;BME280;72175;52.118;5.406;2024-02-23T12:12:30;99088.19;;;13.62;63.10
79221;BME280;72175;52.118;5.406;2024-02-23T12:14:57;99089.81;;;13.63;62.49
79221;BME280;72175;52.118;5.406;2024-02-23T12:17:25;99104.72;;;13.64;62.94
79221;BME280;72175;52.118;5.406;2024-02-23T12:20:02;99101.25;;;13.64;63.00
79221;BME280;72175;52.118;5.406;2024-02-23T12:22:29;99097.56;;;13.65;62.72
79221;BME280;72175;52.118;5.406;2024-02-23T12:24:59;99092.25;;;13.65;62.73
79221;BME280;72175;52.118;5.406;2024-02-23T12:27:26;99087.75;;;13.65;62.61
79221;BME280;72175;52.118;5.406;2024-02-23T12:29:54;99092.06;;;13.66;62.85
79221;BME280;72175;52.118;5.406;2024-02-23T12:32:21;99094.72;;;13.66;62.67
79221;BME280;72175;52.118;5.406;2024-02-23T12:34:48;99091.84;;;13.68;62.71
79221;BME280;72175;52.118;5.406;2024-02-23T12:37:15;99098.19;;;13.67;62.82
79221;BME280;72175;52.118;5.406;2024-02-23T12:39:43;99096.34;;;13.68;62.74
79221;BME280;72175;52.118;5.406;2024-02-23T12:57:26;99111.47;;;13.60;63.24
79221;BME280;72175;52.118;5.406;2024-02-23T12:59:53;99115.97;;;13.60;63.34
79221;BME280;72175;52.118;5.406;2024-02-23T13:02:22;99111.69;;;13.59;63.55
79221;BME280;72175;52.118;5.406;2024-02-23T13:04:48;99116.16;;;13.58;63.35
79221;BME280;72175;52.118;5.406;2024-02-23T13:07:15;99122.31;;;13.59;63.61
79221;BME280;72175;52.118;5.406;2024-02-23T13:09:44;99121.28;;;13.60;63.62
79221;BME280;72175;52.118;5.406;2024-02-23T13:12:10;99120.47;;;13.59;63.35
79221;BME280;72175;52.118;5.406;2024-02-23T13:14:37;99130.09;;;13.60;63.84
79221;BME280;72175;52.118;5.406;2024-02-23T13:17:04;99131.72;;;13.61;63.56